Time;durP1;ratioP1;P1;durP2;ratioP2;P2;SDS_P1;SDS_P2;PMS_P1;PMS_P2;Temp;Humidity;BMP_temperature;BMP_pressure;BME280_temperature;BME280_humidity;BME280_pressure;Samples;Min_cycle;Max_cycle;Signal;HPM_P1;HPM_P2
2023/04/16 00:00:55;;;;;;;15.00;12.50;;;8.30;99.90;;;;;;5073211;28;20413;-72
2023/04/16 00:03:22;;;;;;;15.10;12.13;;;8.30;99.90;;;;;;5072095;28;20886;-71
2023/04/16 00:05:49;;;;;;;18.05;14.15;;;8.30;99.90;;;;;;5072329;28;20480;-71
2023/04/16 00:08:17;;;;;;;14.43;13.00;;;8.40;99.90;;;;;;5076263;28;21567;-71
2023/04/16 00:10:44;;;;;;;15.10;13.23;;;8.40;99.90;;;;;;5078787;28;20898;-71
2023/04/16 00:13:10;;;;;;;14.60;11.88;;;8.40;99.90;;;;;;5083988;28;20426;-71
2023/04/16 00:15:37;;;;;;;14.50;12.07;;;8.40;99.90;;;;;;5076866;28;20427;-71
2023/04/16 00:18:04;;;;;;;13.05;11.75;;;8.40;99.90;;;;;;5077703;28;20430;-71
2023/04/16 00:20:31;;;;;;;16.40;13.20;;;8.30;99.90;;;;;;5083251;28;20430;-70
2023/04/16 00:22:58;;;;;;;13.80;12.30;;;8.30;99.90;;;;;;5077238;28;20896;-70
2023/04/16 00:25:26;;;;;;;14.25;12.82;;;8.30;99.90;;;;;;5083455;28;20440;-72
2023/04/16 00:27:53;;;;;;;16.88;13.48;;;8.30;99.90;;;;;;5085237;28;20934;-71
2023/04/16 00:30:19;;;;;;;14.95;13.07;;;8.30;99.90;;;;;;5077647;28;20427;-72
2023/04/16 00:32:46;;;;;;;14.77;12.50;;;8.30;99.90;;;;;;5085506;28;20425;-72
2023/04/16 00:35:13;;;;;;;14.95;13.45;;;8.30;99.90;;;;;;5076605;28;20414;-71
2023/04/16 00:37:39;;;;;;;15.77;14.18;;;8.30;99.90;;;;;;5081559;28;20798;-71
2023/04/16 00:40:07;;;;;;;15.90;14.30;;;8.30;99.90;;;;;;5084558;22;20434;-68
2023/04/16 00:42:36;;;;;;;15.57;13.90;;;8.30;99.90;;;;;;5046576;28;20555;-67
2023/04/16 00:45:04;;;;;;;15.43;13.20;;;8.30;99.90;;;;;;5047687;28;20834;-67
2023/04/16 00:47:31;;;;;;;15.00;13.45;;;8.40;99.90;;;;;;5048700;28;20414;-67
2023/04/16 00:49:58;;;;;;;15.40;13.80;;;8.40;99.90;;;;;;5049405;28;20973;-67
2023/04/16 00:52:26;;;;;;;17.25;14.80;;;8.40;99.90;;;;;;5048489;28;20440;-67
2023/04/16 00:54:53;;;;;;;15.63;13.43;;;8.40;99.90;;;;;;5041800;28;20538;-67
2023/04/16 00:57:22;;;;;;;18.48;14.20;;;8.40;99.90;;;;;;5054529;28;20517;-67
2023/04/16 00:59:51;;;;;;;17.00;13.50;;;8.40;99.90;;;;;;5047492;28;20432;-67
2023/04/16 01:02:18;;;;;;;16.50;14.15;;;8.30;99.90;;;;;;5043298;28;20421;-67
2023/04/16 01:04:44;;;;;;;17.63;14.07;;;8.30;99.90;;;;;;5049342;28;20428;-67
2023/04/16 01:07:11;;;;;;;17.75;13.50;;;8.30;99.90;;;;;;5048814;28;20421;-67
2023/04/16 01:09:38;;;;;;;15.65;13.93;;;8.30;99.90;;;;;;5045234;28;20888;-67
2023/04/16 01:12:05;;;;;;;17.93;14.60;;;8.40;99.90;;;;;;5051785;28;20491;-68
2023/04/16 01:14:35;;;;;;;16.63;14.13;;;8.30;99.90;;;;;;5058540;28;20540;-67
2023/04/16 01:17:03;;;;;;;17.60;14.60;;;8.30;99.90;;;;;;5049094;28;20540;-67
2023/04/16 01:19:30;;;;;;;19.55;14.90;;;8.30;99.90;;;;;;5048558;28;20447;-67
2023/04/16 01:21:59;;;;;;;16.42;14.10;;;8.40;99.90;;;;;;5045196;28;20482;-67
2023/04/16 01:24:25;;;;;;;18.13;14.85;;;8.30;99.90;;;;;;5057345;28;20415;-67
2023/04/16 01:26:52;;;;;;;20.10;16.23;;;8.30;99.90;;;;;;5050447;28;20436;-67
2023/04/16 01:29:19;;;;;;;19.48;15.15;;;8.30;99.90;;;;;;5047944;28;20474;-67
2023/04/16 01:31:46;;;;;;;20.25;15.70;;;8.30;99.90;;;;;;5050476;28;20879;-67
2023/04/16 01:34:13;;;;;;;18.02;14.80;;;8.30;99.90;;;;;;5052312;28;20460;-67
2023/04/16 01:36:39;;;;;;;16.98;15.18;;;8.20;99.90;;;;;;5061323;28;20457;-67
2023/04/16 01:39:10;;;;;;;18.17;15.50;;;8.30;99.90;;;;;;5047890;28;20900;-67
2023/04/16 01:41:37;;;;;;;18.20;15.10;;;8.30;99.90;;;;;;5048392;28;20429;-68
2023/04/16 01:44:04;;;;;;;17.40;15.47;;;8.30;99.90;;;;;;5046607;28;20428;-68
2023/04/16 01:46:33;;;;;;;17.65;14.82;;;8.20;99.90;;;;;;5048316;28;20429;-67
2023/04/16 01:49:00;;;;;;;17.90;14.88;;;8.30;99.90;;;;;;5048649;28;20421;-67
2023/04/16 01:51:27;;;;;;;17.05;14.32;;;8.30;99.90;;;;;;5049318;28;20461;-67
2023/04/16 01:53:54;;;;;;;18.13;15.68;;;8.30;99.90;;;;;;5050683;28;20440;-67
2023/04/16 01:56:22;;;;;;;17.88;14.57;;;8.30;99.90;;;;;;5062389;28;20424;-67
2023/04/16 01:58:49;;;;;;;19.52;15.20;;;8.30;99.90;;;;;;5047341;28;20915;-67
2023/04/16 02:01:16;;;;;;;17.60;15.07;;;8.30;99.90;;;;;;5047761;28;21185;-67
2023/04/16 02:03:42;;;;;;;17.00;15.30;;;8.30;99.90;;;;;;5048257;28;20420;-67
2023/04/16 02:06:09;;;;;;;19.35;15.32;;;8.20;99.90;;;;;;5054922;28;20419;-67
2023/04/16 02:08:36;;;;;;;18.33;16.42;;;8.20;99.90;;;;;;5055022;28;20421;-67
2023/04/16 02:11:02;;;;;;;20.83;16.88;;;8.20;99.90;;;;;;5047333;28;20957;-67
2023/04/16 02:13:30;;;;;;;20.33;16.52;;;8.20;99.90;;;;;;5047199;28;20425;-67
2023/04/16 02:15:57;;;;;;;20.85;17.02;;;8.20;99.90;;;;;;5048158;28;20948;-67
2023/04/16 02:18:24;;;;;;;20.83;15.80;;;8.30;99.90;;;;;;5048111;28;20425;-67
2023/04/16 02:20:50;;;;;;;21.20;16.42;;;8.30;99.90;;;;;;5055537;28;20419;-68
2023/04/16 02:23:17;;;;;;;19.70;16.25;;;8.30;99.90;;;;;;5054458;28;20421;-67
2023/04/16 02:25:45;;;;;;;18.90;16.08;;;8.30;99.90;;;;;;5035830;28;20440;-67
2023/04/16 02:28:14;;;;;;;23.58;16.25;;;8.30;99.90;;;;;;5047418;28;20425;-67
2023/04/16 02:30:43;;;;;;;17.95;15.75;;;8.30;99.90;;;;;;5048192;28;20872;-67
2023/04/16 02:33:11;;;;;;;18.20;15.10;;;8.30;99.90;;;;;;5048863;28;20448;-67
2023/04/16 02:35:39;;;;;;;18.40;15.32;;;8.20;99.90;;;;;;5054102;28;20425;-67
2023/04/16 02:38:06;;;;;;;18.50;15.60;;;8.30;99.90;;;;;;5059919;28;20510;-67
2023/04/16 02:40:33;;;;;;;19.48;15.40;;;8.20;99.90;;;;;;5046102;28;20557;-68
2023/04/16 02:43:00;;;;;;;22.20;15.23;;;8.20;99.90;;;;;;5047011;28;20425;-67
2023/04/16 02:45:27;;;;;;;17.52;15.48;;;8.30;99.90;;;;;;5055797;28;20878;-67
2023/04/16 02:47:55;;;;;;;20.15;15.13;;;8.30;99.90;;;;;;5053414;28;20445;-67
2023/04/16 02:50:22;;;;;;;19.20;14.65;;;8.30;99.90;;;;;;5057475;28;20425;-67
2023/04/16 02:52:50;;;;;;;19.17;14.88;;;8.30;99.90;;;;;;5049627;28;20514;-67
2023/04/16 02:55:17;;;;;;;18.95;15.65;;;8.30;99.90;;;;;;5052840;28;20425;-67
2023/04/16 02:57:44;;;;;;;19.55;15.25;;;8.30;99.90;;;;;;5050014;28;20418;-67
2023/04/16 03:00:11;;;;;;;16.60;14.80;;;8.30;99.90;;;;;;5055858;28;20421;-67
2023/04/16 03:02:38;;;;;;;21.73;16.20;;;8.30;99.90;;;;;;5046313;28;20425;-67
2023/04/16 03:05:07;;;;;;;17.33;15.00;;;8.40;99.90;;;;;;5047057;28;20409;-67
2023/04/16 03:07:34;;;;;;;19.67;15.13;;;8.30;99.90;;;;;;5046795;28;20516;-67
2023/04/16 03:10:00;;;;;;;17.60;15.70;;;8.30;99.90;;;;;;5046682;28;20467;-67
2023/04/16 03:12:27;;;;;;;20.55;16.27;;;8.30;99.90;;;;;;5047443;28;20768;-68
2023/04/16 03:14:54;;;;;;;19.27;16.37;;;8.40;99.90;;;;;;5052769;28;20478;-67
2023/04/16 03:17:21;;;;;;;17.98;15.73;;;8.40;99.90;;;;;;5062437;28;20413;-67
2023/04/16 03:19:49;;;;;;;20.30;16.85;;;8.40;99.90;;;;;;5060135;28;20416;-67
2023/04/16 03:22:17;;;;;;;19.15;16.88;;;8.40;99.90;;;;;;5061407;28;20604;-67
2023/04/16 03:24:44;;;;;;;21.27;15.90;;;8.40;99.90;;;;;;5044035;28;20435;-67
2023/04/16 03:27:11;;;;;;;20.67;16.27;;;8.30;99.90;;;;;;5037640;28;20437;-67
2023/04/16 03:29:38;;;;;;;22.50;17.10;;;8.30;99.90;;;;;;5046387;28;20421;-67
2023/04/16 03:32:05;;;;;;;19.30;17.30;;;8.30;99.90;;;;;;5059584;28;20486;-72
2023/04/16 03:34:32;;;;;;;19.87;17.60;;;8.30;99.90;;;;;;5046070;28;20502;-67
2023/04/16 03:36:59;;;;;;;19.08;17.08;;;8.30;99.90;;;;;;5050640;28;20415;-67
2023/04/16 03:39:27;;;;;;;22.15;17.55;;;8.30;99.90;;;;;;5037653;28;20433;-68
2023/04/16 03:41:53;;;;;;;20.75;18.05;;;8.30;99.90;;;;;;5043548;28;20425;-67
2023/04/16 03:44:20;;;;;;;21.65;17.83;;;8.30;99.90;;;;;;5044844;28;20773;-67
2023/04/16 03:46:47;;;;;;;19.88;17.77;;;8.30;99.90;;;;;;5045355;28;20479;-67
2023/04/16 03:49:13;;;;;;;21.90;18.45;;;8.30;99.90;;;;;;5045819;28;20417;-67
2023/04/16 03:51:40;;;;;;;21.70;17.30;;;8.30;99.90;;;;;;5033336;28;20495;-71
2023/04/16 03:54:07;;;;;;;22.63;19.00;;;8.30;99.90;;;;;;5050997;28;20777;-66
2023/04/16 03:56:35;;;;;;;21.25;18.50;;;8.20;99.90;;;;;;5052287;28;20414;-67
2023/04/16 03:59:02;;;;;;;26.00;19.88;;;8.30;99.90;;;;;;5052220;28;20791;-67
2023/04/16 04:01:28;;;;;;;28.05;20.92;;;8.30;99.90;;;;;;5061867;28;20439;-67
2023/04/16 04:03:55;;;;;;;29.97;21.90;;;8.30;99.90;;;;;;5056289;28;20432;-68
2023/04/16 04:06:22;;;;;;;30.45;23.80;;;8.30;99.90;;;;;;5057072;28;20420;-67
2023/04/16 04:08:48;;;;;;;26.85;22.08;;;8.30;99.90;;;;;;5053416;28;20445;-67
2023/04/16 04:11:15;;;;;;;30.90;23.88;;;8.40;99.90;;;;;;5046313;28;20527;-67
2023/04/16 04:13:43;;;;;;;29.50;23.52;;;8.40;99.90;;;;;;5051550;28;20440;-67
2023/04/16 04:16:10;;;;;;;31.40;25.25;;;8.40;99.90;;;;;;5047987;28;20428;-67
2023/04/16 04:18:37;;;;;;;34.90;27.00;;;8.40;99.90;;;;;;5049234;28;20448;-67
2023/04/16 04:21:06;;;;;;;35.47;27.30;;;8.40;99.90;;;;;;5051211;28;20535;-67
2023/04/16 04:23:32;;;;;;;35.10;28.10;;;8.40;99.90;;;;;;5048937;28;20618;-67
2023/04/16 04:26:02;;;;;;;37.65;27.88;;;8.40;99.90;;;;;;5052239;28;20522;-67
2023/04/16 04:28:29;;;;;;;38.30;28.02;;;8.40;99.90;;;;;;5050093;28;20424;-67
2023/04/16 04:30:57;;;;;;;40.38;29.63;;;8.40;99.90;;;;;;5049394;28;20492;-67
2023/04/16 04:33:24;;;;;;;37.28;29.05;;;8.40;99.90;;;;;;5047856;28;20445;-67
2023/04/16 04:35:51;;;;;;;41.55;29.90;;;8.40;99.90;;;;;;5051328;28;20815;-67
2023/04/16 04:38:18;;;;;;;38.33;29.42;;;8.40;99.90;;;;;;5051400;28;20885;-67
2023/04/16 04:40:45;;;;;;;36.53;28.30;;;8.40;99.90;;;;;;5052261;28;20432;-67
2023/04/16 04:43:12;;;;;;;35.08;27.50;;;8.40;99.90;;;;;;5039051;28;20467;-67
2023/04/16 04:45:39;;;;;;;37.88;27.55;;;8.40;99.90;;;;;;5048374;28;20815;-67
2023/04/16 04:48:07;;;;;;;34.67;27.63;;;8.40;99.90;;;;;;5048251;28;20509;-67
2023/04/16 04:50:34;;;;;;;32.80;25.65;;;8.40;99.90;;;;;;5054448;28;20426;-67
2023/04/16 04:53:00;;;;;;;33.33;25.60;;;8.40;99.90;;;;;;5059436;28;20446;-67
2023/04/16 04:55:27;;;;;;;33.20;26.45;;;8.40;99.90;;;;;;5049478;28;20907;-67
2023/04/16 04:57:54;;;;;;;36.65;26.10;;;8.40;99.90;;;;;;5062189;28;20417;-68
2023/04/16 05:00:21;;;;;;;37.65;26.38;;;8.30;99.90;;;;;;5036726;28;20884;-67
2023/04/16 05:02:48;;;;;;;34.20;26.20;;;8.30;99.90;;;;;;5061092;28;20474;-67
2023/04/16 05:05:16;;;;;;;38.57;28.03;;;8.30;99.90;;;;;;5049149;28;20445;-67
2023/04/16 05:07:43;;;;;;;32.60;26.33;;;8.30;99.90;;;;;;5047685;28;20787;-67
2023/04/16 05:10:10;;;;;;;38.33;28.65;;;8.30;99.90;;;;;;5048361;28;20417;-67
2023/04/16 05:12:36;;;;;;;37.50;29.23;;;8.30;99.90;;;;;;5050589;28;20417;-67
2023/04/16 05:15:04;;;;;;;36.45;28.40;;;8.30;99.90;;;;;;5061365;28;20539;-67
2023/04/16 05:17:30;;;;;;;40.60;29.40;;;8.40;99.90;;;;;;5068109;28;20584;-68
2023/04/16 05:19:57;;;;;;;43.15;28.83;;;8.40;99.90;;;;;;5063396;28;20910;-67
2023/04/16 05:22:25;;;;;;;37.22;28.23;;;8.40;99.90;;;;;;5053996;28;20705;-67
2023/04/16 05:24:52;;;;;;;37.20;28.65;;;8.40;99.90;;;;;;5048087;28;20417;-67
2023/04/16 05:27:18;;;;;;;38.53;28.03;;;8.40;99.90;;;;;;5054343;28;20986;-68
2023/04/16 05:29:45;;;;;;;40.92;28.27;;;8.40;99.90;;;;;;5066990;28;20439;-67
2023/04/16 05:32:12;;;;;;;35.95;27.20;;;8.40;99.90;;;;;;5060915;28;20417;-66
2023/04/16 05:34:39;;;;;;;38.92;27.80;;;8.40;99.90;;;;;;5053453;28;20429;-67
2023/04/16 05:37:05;;;;;;;37.95;27.27;;;8.40;99.90;;;;;;5049236;28;20425;-68
2023/04/16 05:39:33;;;;;;;36.72;26.48;;;8.40;99.90;;;;;;5063591;28;20423;-68
2023/04/16 05:42:00;;;;;;;36.45;25.23;;;8.40;99.90;;;;;;5043568;28;20427;-67
2023/04/16 05:44:27;;;;;;;33.78;25.15;;;8.50;99.90;;;;;;5047599;28;20436;-67
2023/04/16 05:46:54;;;;;;;33.47;24.73;;;8.50;99.90;;;;;;5045934;28;20409;-68
2023/04/16 05:49:21;;;;;;;31.00;24.57;;;8.50;99.90;;;;;;5051230;28;20919;-67
2023/04/16 05:51:47;;;;;;;33.22;24.52;;;8.60;99.90;;;;;;5044515;28;20437;-69
2023/04/16 05:54:14;;;;;;;29.75;23.85;;;8.60;99.90;;;;;;5049042;28;20435;-67
2023/04/16 05:56:42;;;;;;;30.07;22.67;;;8.50;99.90;;;;;;5061714;28;20418;-67
2023/04/16 05:59:09;;;;;;;31.00;24.27;;;8.60;99.90;;;;;;5055935;28;20414;-67
2023/04/16 06:01:36;;;;;;;33.10;25.50;;;8.60;99.90;;;;;;5051508;28;20439;-67
2023/04/16 06:04:02;;;;;;;32.03;25.08;;;8.60;99.90;;;;;;5053948;28;20433;-68
2023/04/16 06:06:29;;;;;;;31.95;24.30;;;8.70;99.90;;;;;;5046771;28;20429;-68
2023/04/16 06:08:56;;;;;;;32.15;24.65;;;8.70;99.90;;;;;;5054501;28;20452;-67
2023/04/16 06:11:23;;;;;;;31.00;23.60;;;8.60;99.90;;;;;;5053118;28;20697;-68
2023/04/16 06:13:51;;;;;;;35.88;25.38;;;8.70;99.90;;;;;;5062162;28;20435;-68
2023/04/16 06:16:17;;;;;;;29.63;24.30;;;8.60;99.90;;;;;;5055623;28;20888;-67
2023/04/16 06:18:44;;;;;;;34.97;25.90;;;8.60;99.90;;;;;;5047380;28;20712;-67
2023/04/16 06:21:11;;;;;;;33.85;25.30;;;8.60;99.90;;;;;;5032482;28;20457;-67
2023/04/16 06:23:38;;;;;;;34.55;26.85;;;8.60;99.90;;;;;;5042066;28;20433;-67
2023/04/16 06:26:05;;;;;;;34.67;25.10;;;8.60;99.90;;;;;;5047286;28;20764;-67
2023/04/16 06:28:32;;;;;;;35.35;25.42;;;8.60;99.90;;;;;;5045375;28;20455;-67
2023/04/16 06:31:00;;;;;;;31.90;26.38;;;8.60;99.90;;;;;;5046323;28;20407;-67
2023/04/16 06:33:27;;;;;;;37.72;25.55;;;8.70;99.90;;;;;;5050456;28;20475;-68
2023/04/16 06:35:53;;;;;;;33.42;25.92;;;8.70;99.90;;;;;;5046167;28;20451;-67
2023/04/16 06:38:20;;;;;;;35.15;26.17;;;8.70;99.90;;;;;;5050486;28;20416;-67
2023/04/16 06:40:48;;;;;;;31.65;24.20;;;8.70;99.90;;;;;;5043101;28;20903;-68
2023/04/16 06:43:16;;;;;;;31.77;24.05;;;8.70;99.90;;;;;;5031351;28;20543;-67
2023/04/16 06:45:43;;;;;;;31.42;24.85;;;8.70;99.90;;;;;;5044761;28;20463;-69
2023/04/16 06:48:11;;;;;;;31.90;23.83;;;8.70;99.90;;;;;;5049203;28;20432;-68
2023/04/16 06:50:38;;;;;;;28.50;23.90;;;8.70;99.90;;;;;;5049721;28;20780;-70
2023/04/16 06:53:05;;;;;;;28.02;22.70;;;8.70;99.90;;;;;;5045039;28;20440;-69
2023/04/16 06:55:31;;;;;;;29.58;23.08;;;8.70;99.90;;;;;;5043747;28;20461;-69
2023/04/16 06:57:58;;;;;;;29.03;23.30;;;8.70;99.90;;;;;;5043925;28;20423;-70
2023/04/16 07:00:25;;;;;;;30.50;23.98;;;8.80;99.90;;;;;;5055637;28;20415;-68
2023/04/16 07:02:52;;;;;;;29.13;24.40;;;8.80;99.90;;;;;;5046238;28;20420;-69
2023/04/16 07:05:20;;;;;;;30.42;25.92;;;8.80;99.90;;;;;;5045083;28;20428;-71
2023/04/16 07:07:46;;;;;;;33.17;25.40;;;8.90;99.90;;;;;;5047574;28;20417;-73
2023/04/16 07:10:13;;;;;;;32.42;25.73;;;8.90;99.90;;;;;;5038405;28;20429;-72
2023/04/16 07:12:40;;;;;;;33.55;26.67;;;8.90;99.90;;;;;;5038249;28;20452;-68
2023/04/16 07:15:08;;;;;;;28.45;24.77;;;8.90;99.90;;;;;;5045024;28;20441;-67
2023/04/16 07:17:35;;;;;;;25.33;21.30;;;9.00;99.90;;;;;;5048415;28;20436;-68
2023/04/16 07:20:02;;;;;;;23.30;20.80;;;8.90;99.90;;;;;;5049746;28;20880;-68
2023/04/16 07:22:30;;;;;;;26.27;21.20;;;9.00;99.90;;;;;;5037426;28;20431;-69
2023/04/16 07:24:57;;;;;;;24.25;20.17;;;9.00;99.90;;;;;;5039567;28;20449;-68
2023/04/16 07:27:24;;;;;;;23.38;19.50;;;9.00;99.90;;;;;;5048036;28;20919;-72
2023/04/16 07:29:50;;;;;;;22.00;18.70;;;9.00;99.90;;;;;;5042303;28;20502;-73
2023/04/16 07:32:17;;;;;;;24.80;20.73;;;9.10;99.90;;;;;;5043771;28;20515;-70
2023/04/16 07:34:44;;;;;;;28.67;22.48;;;9.10;99.90;;;;;;5043113;28;20513;-72
2023/04/16 07:37:11;;;;;;;29.20;24.13;;;9.10;99.90;;;;;;5043946;28;20804;-72
2023/04/16 07:39:39;;;;;;;32.83;23.30;;;9.10;99.90;;;;;;5044275;28;20425;-70
2023/04/16 07:42:06;;;;;;;31.92;25.08;;;9.10;99.90;;;;;;5043299;28;20492;-71
2023/04/16 07:44:33;;;;;;;29.95;24.15;;;9.10;99.90;;;;;;5043777;28;20413;-70
2023/04/16 07:46:59;;;;;;;29.63;24.15;;;9.10;99.90;;;;;;5047025;28;20438;-68
2023/04/16 07:49:26;;;;;;;32.40;24.73;;;9.20;99.90;;;;;;5038760;28;20874;-70
2023/04/16 07:51:53;;;;;;;31.30;25.40;;;9.20;99.90;;;;;;5037652;28;20434;-68
2023/04/16 07:54:20;;;;;;;28.02;24.77;;;9.20;99.90;;;;;;5038847;28;20417;-68
2023/04/16 07:56:48;;;;;;;30.23;24.55;;;9.20;99.90;;;;;;5042572;28;20433;-68
2023/04/16 07:59:14;;;;;;;29.83;25.25;;;9.30;99.90;;;;;;5036208;28;20429;-70
2023/04/16 08:01:41;;;;;;;30.53;25.57;;;9.30;99.90;;;;;;5042791;28;20437;-70
2023/04/16 08:04:08;;;;;;;30.15;25.63;;;9.30;99.90;;;;;;5046109;28;20434;-70
2023/04/16 08:06:35;;;;;;;27.27;24.38;;;9.40;99.90;;;;;;5049064;28;20417;-70
2023/04/16 08:09:01;;;;;;;28.60;24.23;;;9.40;99.90;;;;;;5042975;28;20884;-69
2023/04/16 08:11:28;;;;;;;31.90;25.90;;;9.50;99.90;;;;;;5053343;28;20418;-68
2023/04/16 08:13:56;;;;;;;27.45;24.55;;;9.70;99.90;;;;;;5050795;28;20533;-69
2023/04/16 08:16:23;;;;;;;27.48;24.48;;;9.80;99.90;;;;;;5042368;28;20425;-69
2023/04/16 08:18:50;;;;;;;27.05;24.13;;;9.90;99.90;;;;;;5044318;28;20452;-69
2023/04/16 08:21:16;;;;;;;26.23;23.52;;;10.10;99.90;;;;;;5044924;28;20432;-69
2023/04/16 08:23:43;;;;;;;25.77;23.17;;;10.30;99.90;;;;;;5039011;28;20431;-70
2023/04/16 08:26:10;;;;;;;26.42;23.80;;;10.50;99.90;;;;;;5046484;28;20421;-69
2023/04/16 08:28:37;;;;;;;23.90;21.60;;;10.70;99.90;;;;;;5043037;28;20557;-70
2023/04/16 08:31:05;;;;;;;24.20;21.90;;;10.90;99.90;;;;;;5043745;28;20441;-69
2023/04/16 08:33:32;;;;;;;23.92;21.52;;;11.00;99.90;;;;;;5040264;28;20714;-70
2023/04/16 08:35:58;;;;;;;23.67;21.27;;;11.20;99.90;;;;;;5041916;28;20950;-71
2023/04/16 08:38:25;;;;;;;24.05;21.77;;;11.30;99.90;;;;;;5047198;28;20437;-71
2023/04/16 08:40:53;;;;;;;25.27;22.77;;;11.30;99.90;;;;;;5048357;28;20895;-71
2023/04/16 08:43:23;;;;;;;23.40;21.10;;;11.30;99.90;;;;;;5046374;28;20410;-71
2023/04/16 08:45:55;;;;;;;25.00;22.60;;;11.10;99.90;;;;;;5043054;28;20436;-71
2023/04/16 08:48:24;;;;;;;25.67;23.00;;;11.00;99.90;;;;;;5042677;28;20425;-72
2023/04/16 08:50:52;;;;;;;25.40;22.70;;;11.00;99.90;;;;;;5047083;28;20448;-71
2023/04/16 08:53:29;;;;;;;25.10;22.67;;;11.00;99.90;;;;;;5039961;28;20440;-68
2023/04/16 08:56:01;;;;;;;23.77;21.48;;;11.00;99.90;;;;;;5040915;28;20494;-68
2023/04/16 08:58:33;;;;;;;23.90;21.60;;;11.10;99.90;;;;;;5044066;28;20424;-68
2023/04/16 09:01:02;;;;;;;23.47;21.07;;;11.00;99.90;;;;;;5049039;28;20461;-68
2023/04/16 09:03:31;;;;;;;24.17;21.77;;;11.00;99.90;;;;;;5043245;28;20432;-68
2023/04/16 09:05:59;;;;;;;22.25;20.15;;;11.10;99.90;;;;;;5050847;28;20434;-69
2023/04/16 09:08:27;;;;;;;22.08;19.98;;;11.20;99.90;;;;;;5043733;28;20508;-68
2023/04/16 09:10:55;;;;;;;22.60;20.50;;;11.40;99.90;;;;;;5046031;28;20417;-67
2023/04/16 09:13:22;;;;;;;23.08;20.98;;;11.60;99.90;;;;;;5048049;28;20452;-68
2023/04/16 09:15:52;;;;;;;21.95;19.85;;;11.80;99.90;;;;;;5044416;28;20495;-69
2023/04/16 09:18:20;;;;;;;22.60;20.40;;;12.00;99.80;;;;;;5052190;28;20425;-67
2023/04/16 09:20:49;;;;;;;22.10;20.00;;;12.10;98.70;;;;;;5039997;28;20479;-67
2023/04/16 09:23:17;;;;;;;22.88;20.67;;;12.10;98.60;;;;;;5045597;28;20525;-67
2023/04/16 09:25:43;;;;;;;22.30;20.20;;;12.10;98.10;;;;;;5045077;28;20501;-68
2023/04/16 09:28:10;;;;;;;21.67;19.67;;;12.10;97.90;;;;;;5046527;28;20438;-68
2023/04/16 09:30:37;;;;;;;21.50;19.50;;;12.10;98.00;;;;;;5043161;28;20552;-67
2023/04/16 09:33:15;;;;;;;23.10;20.90;;;12.10;97.90;;;;;;5044895;28;20417;-67
2023/04/16 09:35:46;;;;;;;23.10;20.92;;;12.10;97.20;;;;;;5054027;28;20540;-68
2023/04/16 09:38:14;;;;;;;22.15;20.05;;;12.10;98.20;;;;;;5037915;28;20433;-67
2023/04/16 09:40:41;;;;;;;22.95;20.83;;;12.10;98.10;;;;;;5047943;28;20451;-67
2023/04/16 09:43:11;;;;;;;22.98;20.88;;;12.20;98.10;;;;;;5050266;28;20433;-66
2023/04/16 09:45:49;;;;;;;23.48;21.30;;;12.20;97.10;;;;;;5042600;28;20440;-67
2023/04/16 09:48:16;;;;;;;24.75;22.40;;;12.10;96.80;;;;;;5052193;28;20528;-68
2023/04/16 09:50:50;;;;;;;25.40;23.02;;;12.10;97.30;;;;;;5052860;28;20452;-67
2023/04/16 09:53:24;;;;;;;25.20;23.00;;;12.00;97.60;;;;;;5040906;28;20456;-67
2023/04/16 09:55:50;;;;;;;24.42;22.17;;;12.10;97.80;;;;;;5042825;28;20456;-67
2023/04/16 09:58:18;;;;;;;24.73;22.33;;;12.10;97.00;;;;;;5044662;28;20952;-68
2023/04/16 10:00:45;;;;;;;25.92;23.33;;;12.10;96.40;;;;;;5042589;28;20441;-70
2023/04/16 10:03:12;;;;;;;24.90;22.70;;;12.00;96.90;;;;;;5046549;28;20429;-71
2023/04/16 10:05:39;;;;;;;25.33;22.92;;;11.90;97.30;;;;;;5040832;28;20438;-72
2023/04/16 10:08:12;;;;;;;27.02;24.42;;;11.90;97.30;;;;;;5042288;28;20888;-69
2023/04/16 10:10:41;;;;;;;26.50;23.90;;;12.00;97.20;;;;;;5042718;28;20499;-67
2023/04/16 10:13:08;;;;;;;26.00;23.50;;;12.00;97.10;;;;;;5044801;28;20502;-68
2023/04/16 10:15:35;;;;;;;25.73;23.33;;;12.10;97.20;;;;;;5048092;28;20760;-68
2023/04/16 10:18:03;;;;;;;23.55;21.50;;;12.30;96.50;;;;;;5042166;28;20459;-68
2023/04/16 10:20:30;;;;;;;22.85;20.85;;;12.40;95.80;;;;;;5038288;28;20524;-68
2023/04/16 10:22:57;;;;;;;23.48;21.38;;;12.60;94.70;;;;;;5044623;28;20448;-68
2023/04/16 10:25:24;;;;;;;22.58;20.67;;;12.50;94.60;;;;;;5047123;28;20429;-67
2023/04/16 10:27:52;;;;;;;23.00;21.08;;;12.50;94.00;;;;;;5042347;28;21012;-68
2023/04/16 10:30:20;;;;;;;23.08;21.17;;;12.40;94.70;;;;;;5043503;28;20437;-68
2023/04/16 10:32:47;;;;;;;22.75;20.55;;;12.40;95.00;;;;;;5036685;28;20429;-68
2023/04/16 10:35:16;;;;;;;22.90;20.70;;;12.40;94.70;;;;;;5039322;28;20870;-68
2023/04/16 10:37:44;;;;;;;21.85;19.85;;;12.50;95.10;;;;;;5043788;28;20433;-67
2023/04/16 10:40:24;;;;;;;20.38;18.48;;;12.60;95.20;;;;;;5049078;28;20516;-68
2023/04/16 10:42:57;;;;;;;21.90;20.00;;;12.70;95.00;;;;;;5049688;28;20450;-67
2023/04/16 10:45:31;;;;;;;20.90;19.10;;;12.90;94.80;;;;;;5041813;28;20437;-69
2023/04/16 10:47:58;;;;;;;20.70;18.80;;;13.10;94.10;;;;;;5048710;28;20457;-67
2023/04/16 10:50:33;;;;;;;21.50;19.60;;;13.20;92.90;;;;;;5041572;28;20734;-67
2023/04/16 10:53:20;;;;;;;21.88;19.83;;;13.20;93.10;;;;;;5053348;28;20411;-69
2023/04/16 10:55:57;;;;;;;20.92;19.23;;;13.20;92.70;;;;;;5037737;28;20432;-65
2023/04/16 10:58:29;;;;;;;22.15;20.25;;;13.20;93.20;;;;;;5036462;28;20440;-71
2023/04/16 11:00:58;;;;;;;20.92;19.13;;;13.30;93.50;;;;;;5041043;28;20444;-68
2023/04/16 11:03:25;;;;;;;22.10;20.20;;;13.50;91.80;;;;;;5043062;28;20824;-67
2023/04/16 11:05:52;;;;;;;21.20;19.40;;;13.60;91.80;;;;;;5039785;28;20444;-69
2023/04/16 11:08:18;;;;;;;21.33;19.53;;;13.70;90.80;;;;;;5043496;28;20842;-69
2023/04/16 11:10:45;;;;;;;21.47;19.57;;;13.80;90.50;;;;;;5053466;28;20485;-68
2023/04/16 11:13:13;;;;;;;21.93;20.03;;;13.70;90.30;;;;;;5041339;28;20421;-69
2023/04/16 11:15:41;;;;;;;21.70;19.80;;;13.80;90.50;;;;;;5050977;28;20413;-69
2023/04/16 11:18:08;;;;;;;21.63;19.73;;;13.80;90.70;;;;;;5043712;28;20772;-69
2023/04/16 11:20:35;;;;;;;20.57;18.77;;;13.90;90.20;;;;;;5040739;28;20997;-69
2023/04/16 11:23:02;;;;;;;20.10;18.30;;;13.80;90.00;;;;;;5032040;28;20796;-65
2023/04/16 11:25:30;;;;;;;20.40;18.80;;;13.80;90.20;;;;;;5055377;28;20526;-69
2023/04/16 11:27:58;;;;;;;22.13;20.23;;;13.90;90.20;;;;;;5038755;28;20519;-66
2023/04/16 11:30:29;;;;;;;21.90;19.95;;;13.80;88.90;;;;;;5040333;28;20528;-69
2023/04/16 11:32:57;;;;;;;21.38;19.58;;;13.60;90.00;;;;;;5042813;28;20463;-69
2023/04/16 11:35:24;;;;;;;21.40;19.60;;;13.50;90.50;;;;;;5051314;28;20425;-68
2023/04/16 11:37:56;;;;;;;20.92;19.23;;;13.60;90.90;;;;;;5041973;28;20444;-70
2023/04/16 11:40:23;;;;;;;20.88;19.13;;;13.70;90.30;;;;;;5040710;28;20436;-70
2023/04/16 11:42:50;;;;;;;20.45;18.85;;;13.80;90.60;;;;;;5045576;28;20448;-69
2023/04/16 11:45:18;;;;;;;21.80;19.80;;;13.90;88.40;;;;;;5043874;28;20413;-69
2023/04/16 11:47:45;;;;;;;20.80;19.10;;;14.00;88.80;;;;;;5034998;28;20794;-69
2023/04/16 11:50:22;;;;;;;22.80;20.90;;;14.00;87.70;;;;;;5040302;28;20895;-68
2023/04/16 11:52:50;;;;;;;22.10;20.20;;;14.00;87.90;;;;;;5039671;28;20421;-68
2023/04/16 11:55:17;;;;;;;22.60;20.60;;;13.90;87.40;;;;;;5043771;28;20443;-68
2023/04/16 11:57:44;;;;;;;23.27;21.27;;;13.90;88.80;;;;;;5040056;28;20761;-69
2023/04/16 12:00:12;;;;;;;24.73;22.55;;;13.80;90.00;;;;;;5037973;28;20438;-68
2023/04/16 12:02:41;;;;;;;24.63;22.45;;;13.90;90.10;;;;;;5038996;28;20504;-71
2023/04/16 12:05:27;;;;;;;23.77;21.77;;;13.90;89.90;;;;;;5038308;28;20451;-70
2023/04/16 12:07:54;;;;;;;25.17;22.97;;;14.00;89.50;;;;;;5042424;28;20417;-70
2023/04/16 12:10:21;;;;;;;25.33;23.23;;;14.00;90.00;;;;;;5040484;28;20449;-69
2023/04/16 12:12:48;;;;;;;25.07;22.97;;;14.00;89.60;;;;;;5045858;28;20431;-72
2023/04/16 12:15:14;;;;;;;23.95;21.98;;;14.00;89.70;;;;;;5042998;28;20432;-69
2023/04/16 12:17:41;;;;;;;22.27;20.48;;;14.10;89.50;;;;;;5047065;28;20431;-68
2023/04/16 12:20:10;;;;;;;22.27;20.38;;;14.20;88.70;;;;;;5039929;28;20480;-68
2023/04/16 12:22:40;;;;;;;22.30;20.40;;;14.30;87.40;;;;;;5047952;28;20449;-69
2023/04/16 12:25:10;;;;;;;22.30;20.40;;;14.40;86.10;;;;;;5043313;28;20773;-71
2023/04/16 12:27:49;;;;;;;22.15;20.23;;;14.50;84.10;;;;;;5041961;28;20496;-69
2023/04/16 12:30:17;;;;;;;23.90;21.90;;;14.60;84.20;;;;;;5036162;28;20451;-69
2023/04/16 12:32:47;;;;;;;22.03;20.27;;;14.60;84.30;;;;;;5043051;28;20423;-70
2023/04/16 12:35:28;;;;;;;22.25;20.45;;;14.60;83.60;;;;;;5034873;28;20429;-70